Time;durP1;ratioP1;P1;durP2;ratioP2;P2;SDS_P1;SDS_P2;PMS_P1;PMS_P2;Temp;Humidity;BMP_temperature;BMP_pressure;BME280_temperature;BME280_humidity;BME280_pressure;Samples;Min_cycle;Max_cycle;Signal;HPM_P1;HPM_P2
2023/10/12 00:04:18;;;;;;;19.38;8.77;;;;;;;;;;13101727;22;20421;-87
2023/10/12 00:09:25;;;;;;;14.98;9.23;;;;;;;;;;13120558;22;20433;-87
2023/10/12 00:14:29;;;;;;;15.80;8.95;;;;;;;;;;13104483;22;21059;-87
2023/10/12 00:19:33;;;;;;;15.50;9.02;;;;;;;;;;13106457;22;20751;-87
2023/10/12 00:24:38;;;;;;;17.92;9.07;;;;;;;;;;13101330;22;20765;-88
2023/10/12 00:29:41;;;;;;;16.55;8.50;;;;;;;;;;13100419;22;20761;-88
2023/10/12 00:34:47;;;;;;;14.83;8.40;;;;;;;;;;13113046;22;20787;-88
2023/10/12 00:39:58;;;;;;;15.20;8.93;;;;;;;;;;13100423;22;20367;-88
2023/10/12 00:45:06;;;;;;;14.65;9.00;;;;;;;;;;13098978;22;20375;-87
2023/10/12 00:50:11;;;;;;;13.93;8.27;;;;;;;;;;13116531;22;20696;-88
2023/10/12 00:55:21;;;;;;;15.48;8.85;;;;;;;;;;13100321;22;20411;-88
2023/10/12 01:00:26;;;;;;;14.75;8.65;;;;;;;;;;13119509;22;20366;-87
2023/10/12 01:05:35;;;;;;;15.77;9.25;;;;;;;;;;13100470;22;20868;-87
2023/10/12 01:10:40;;;;;;;15.70;8.50;;;;;;;;;;13141185;22;20356;-88
2023/10/12 01:15:46;;;;;;;14.18;8.77;;;;;;;;;;13099486;22;20383;-87
2023/10/12 01:20:50;;;;;;;18.40;9.38;;;;;;;;;;13100399;22;20657;-88
2023/10/12 01:26:03;;;;;;;15.15;8.80;;;;;;;;;;13105169;22;20907;-87
2023/10/12 01:31:06;;;;;;;17.35;9.30;;;;;;;;;;13093411;22;20412;-86
2023/10/12 01:36:08;;;;;;;19.02;8.75;;;;;;;;;;13099597;22;20383;-88
2023/10/12 01:41:12;;;;;;;15.30;8.77;;;;;;;;;;13099143;22;20712;-88
2023/10/12 01:46:21;;;;;;;17.38;8.75;;;;;;;;;;13098813;22;20367;-88
2023/10/12 01:51:25;;;;;;;15.85;8.80;;;;;;;;;;13099913;22;20379;-88
2023/10/12 01:56:29;;;;;;;16.70;8.30;;;;;;;;;;13099671;22;20435;-86
2023/10/12 02:01:33;;;;;;;12.50;8.25;;;;;;;;;;13099776;22;20375;-88
2023/10/12 02:06:39;;;;;;;15.10;8.75;;;;;;;;;;13099937;22;20488;-88
2023/10/12 02:11:53;;;;;;;14.77;8.45;;;;;;;;;;13114559;22;20352;-89
2023/10/12 02:16:55;;;;;;;13.87;8.13;;;;;;;;;;13098472;22;20359;-89
2023/10/12 02:22:01;;;;;;;17.25;8.32;;;;;;;;;;13099890;22;20437;-88
2023/10/12 02:27:05;;;;;;;16.77;8.27;;;;;;;;;;13100252;22;20409;-88
2023/10/12 02:32:20;;;;;;;15.80;8.43;;;;;;;;;;13098505;22;20833;-88
2023/10/12 02:37:24;;;;;;;15.48;8.15;;;;;;;;;;13105562;22;20371;-87
2023/10/12 02:42:42;;;;;;;19.90;8.57;;;;;;;;;;13106466;22;20417;-87
2023/10/12 02:47:46;;;;;;;14.27;7.60;;;;;;;;;;13098532;22;20434;-88
2023/10/12 02:52:51;;;;;;;13.65;8.25;;;;;;;;;;13108532;22;20440;-88
2023/10/12 02:57:59;;;;;;;14.73;8.55;;;;;;;;;;13098036;22;20363;-87
2023/10/12 03:03:07;;;;;;;13.87;8.20;;;;;;;;;;13099418;22;20367;-88
2023/10/12 03:08:16;;;;;;;16.60;8.32;;;;;;;;;;13101592;22;20454;-86
2023/10/12 03:13:25;;;;;;;14.85;7.95;;;;;;;;;;13133547;22;20371;-87
2023/10/12 03:18:28;;;;;;;14.38;8.27;;;;;;;;;;13102596;22;20471;-88
2023/10/12 03:23:33;;;;;;;14.13;8.13;;;;;;;;;;13101727;22;20363;-88
2023/10/12 03:28:44;;;;;;;13.30;8.20;;;;;;;;;;13102222;22;20356;-88
2023/10/12 03:33:53;;;;;;;15.75;8.63;;;;;;;;;;13102215;22;20383;-86
2023/10/12 03:39:13;;;;;;;13.68;7.97;;;;;;;;;;13102069;22;20371;-87
2023/10/12 03:44:22;;;;;;;14.55;7.82;;;;;;;;;;13101610;22;20388;-87
2023/10/12 03:49:32;;;;;;;13.85;7.45;;;;;;;;;;13105596;22;20835;-87
2023/10/12 03:54:34;;;;;;;14.38;7.32;;;;;;;;;;13101429;22;20440;-87
2023/10/12 03:59:44;;;;;;;13.88;7.72;;;;;;;;;;13102692;22;20379;-88
2023/10/12 04:04:53;;;;;;;14.13;8.13;;;;;;;;;;13130401;22;20385;-88
2023/10/12 04:10:13;;;;;;;13.80;7.87;;;;;;;;;;13143959;22;20324;-88
2023/10/12 04:15:27;;;;;;;13.98;7.55;;;;;;;;;;13110358;22;20375;-87
2023/10/12 04:20:29;;;;;;;14.93;7.63;;;;;;;;;;13110017;22;20430;-87
2023/10/12 04:25:46;;;;;;;15.05;8.05;;;;;;;;;;13131266;22;20416;-87
2023/10/12 04:36:38;;;;;;;14.60;8.18;;;;;;;;;;12932360;23;20883;-87
2023/10/12 04:41:46;;;;;;;20.33;8.65;;;;;;;;;;13066035;22;20433;-87
2023/10/12 04:46:51;;;;;;;13.90;8.10;;;;;;;;;;13101618;22;20359;-87
2023/10/12 04:52:05;;;;;;;13.63;7.72;;;;;;;;;;13106985;22;20367;-89
2023/10/12 04:57:14;;;;;;;15.05;8.20;;;;;;;;;;13105702;22;20957;-89
2023/10/12 05:02:28;;;;;;;14.20;7.87;;;;;;;;;;13108254;22;20372;-89
2023/10/12 05:07:43;;;;;;;14.98;7.65;;;;;;;;;;13129432;22;20359;-88
2023/10/12 05:12:46;;;;;;;16.05;8.25;;;;;;;;;;13121414;22;20444;-90
2023/10/12 05:17:50;;;;;;;14.68;7.95;;;;;;;;;;13109215;22;20397;-89
2023/10/12 05:22:52;;;;;;;14.20;7.70;;;;;;;;;;13107780;22;20359;-89
2023/10/12 05:28:08;;;;;;;14.03;7.77;;;;;;;;;;13105884;22;20363;-89
2023/10/12 05:33:28;;;;;;;14.98;8.55;;;;;;;;;;13108108;22;20371;-92
2023/10/12 05:38:35;;;;;;;16.63;8.25;;;;;;;;;;13105328;22;20367;-90
2023/10/12 05:43:40;;;;;;;14.15;8.15;;;;;;;;;;13128365;22;20351;-89
2023/10/12 05:48:46;;;;;;;16.63;8.07;;;;;;;;;;13128166;22;20359;-91
2023/10/12 05:53:49;;;;;;;13.95;7.82;;;;;;;;;;13106742;22;20692;-89
2023/10/12 05:58:52;;;;;;;18.93;8.17;;;;;;;;;;13108489;22;20401;-89
2023/10/12 06:03:56;;;;;;;16.88;9.07;;;;;;;;;;13108247;22;20820;-89
2023/10/12 06:08:59;;;;;;;16.23;7.93;;;;;;;;;;13130950;22;20948;-89
2023/10/12 06:14:01;;;;;;;18.63;10.20;;;;;;;;;;13125367;22;20460;-89
2023/10/12 06:19:05;;;;;;;17.23;8.97;;;;;;;;;;13105700;22;20363;-89
2023/10/12 06:24:11;;;;;;;15.57;8.30;;;;;;;;;;13124518;22;20359;-90
2023/10/12 06:29:24;;;;;;;15.38;8.60;;;;;;;;;;13110873;22;20440;-89
2023/10/12 06:34:29;;;;;;;20.73;9.40;;;;;;;;;;13110027;22;20383;-89
2023/10/12 06:40:16;;;;;;;19.35;9.48;;;;;;;;;;13110512;22;20420;-89
2023/10/12 06:45:07;;;;;;;17.23;9.70;;;;;;;;;;13110491;22;20359;-89
2023/10/12 06:50:20;;;;;;;20.70;10.53;;;;;;;;;;13114957;22;20355;-89
2023/10/12 06:55:28;;;;;;;20.80;11.07;;;;;;;;;;13113597;22;20409;-89
2023/10/12 07:00:59;;;;;;;25.83;13.40;;;;;;;;;;13112988;22;20368;-89
2023/10/12 07:06:01;;;;;;;29.92;14.07;;;;;;;;;;13112968;22;20359;-90
2023/10/12 07:11:04;;;;;;;27.42;13.20;;;;;;;;;;13118655;22;20389;-89
2023/10/12 07:16:07;;;;;;;27.15;13.25;;;;;;;;;;13128136;22;20908;-90
2023/10/12 07:21:20;;;;;;;28.92;14.35;;;;;;;;;;13135713;22;20424;-90
2023/10/12 07:26:24;;;;;;;27.40;13.97;;;;;;;;;;13113431;22;20359;-90
2023/10/12 07:31:38;;;;;;;30.85;14.30;;;;;;;;;;13114428;22;20371;-89
2023/10/12 07:36:52;;;;;;;23.30;12.15;;;;;;;;;;13135071;22;20423;-89
2023/10/12 07:41:56;;;;;;;24.25;12.43;;;;;;;;;;13112994;22;20359;-89
2023/10/12 07:46:58;;;;;;;20.20;11.75;;;;;;;;;;13114154;22;20827;-90
2023/10/12 07:52:08;;;;;;;22.70;12.85;;;;;;;;;;13112779;22;20363;-89
2023/10/12 07:57:11;;;;;;;22.00;11.82;;;;;;;;;;13113557;22;20379;-89
2023/10/12 08:02:15;;;;;;;25.92;13.20;;;;;;;;;;13113130;22;20396;-89
2023/10/12 08:07:26;;;;;;;27.83;12.75;;;;;;;;;;13112318;22;20818;-90
2023/10/12 08:12:30;;;;;;;25.00;12.18;;;;;;;;;;13114210;22;20359;-90
2023/10/12 08:17:34;;;;;;;25.43;12.93;;;;;;;;;;13121693;22;20379;-89
2023/10/12 08:22:39;;;;;;;24.33;13.30;;;;;;;;;;13114071;22;20375;-89
2023/10/12 08:27:52;;;;;;;24.63;12.82;;;;;;;;;;13113249;22;20723;-91
2023/10/12 08:32:59;;;;;;;24.67;13.53;;;;;;;;;;13112949;22;20371;-89
2023/10/12 08:38:12;;;;;;;25.55;13.07;;;;;;;;;;13104528;22;20874;-90
2023/10/12 08:43:34;;;;;;;23.98;13.18;;;;;;;;;;13104359;22;20444;-90
2023/10/12 08:48:42;;;;;;;26.75;13.32;;;;;;;;;;13102239;22;20371;-90
2023/10/12 08:53:48;;;;;;;25.50;13.82;;;;;;;;;;13107768;22;20367;-89
2023/10/12 08:58:55;;;;;;;27.08;14.52;;;;;;;;;;13110627;22;20834;-89
2023/10/12 09:04:03;;;;;;;28.60;15.27;;;;;;;;;;13111288;22;20351;-89
2023/10/12 09:09:07;;;;;;;36.10;15.52;;;;;;;;;;13110658;22;20892;-89
2023/10/12 09:14:13;;;;;;;31.33;16.00;;;;;;;;;;13110638;22;20371;-90
2023/10/12 09:19:28;;;;;;;30.27;16.23;;;;;;;;;;13129879;22;20420;-90
2023/10/12 09:24:35;;;;;;;31.95;16.95;;;;;;;;;;13111278;22;20371;-89
2023/10/12 09:29:42;;;;;;;26.95;15.85;;;;;;;;;;13111725;22;20416;-89
2023/10/12 09:35:02;;;;;;;27.30;15.02;;;;;;;;;;13111126;22;20387;-89
2023/10/12 09:57:50;;;;;;;30.15;15.10;;;;;;;;;;13164848;22;20845;-88
2023/10/12 10:02:55;;;;;;;30.13;14.83;;;;;;;;;;13173491;22;20465;-88
2023/10/12 10:08:04;;;;;;;28.70;14.77;;;;;;;;;;13174640;22;20353;-88
2023/10/12 10:13:10;;;;;;;29.65;14.55;;;;;;;;;;13172899;22;20357;-89
2023/10/12 10:18:16;;;;;;;29.17;14.85;;;;;;;;;;13173960;22;20477;-87
2023/10/12 10:23:19;;;;;;;31.65;15.70;;;;;;;;;;13195749;22;20350;-89
2023/10/12 10:28:26;;;;;;;30.53;14.40;;;;;;;;;;13202867;22;20382;-88
2023/10/12 10:33:30;;;;;;;28.27;13.63;;;;;;;;;;13177877;22;20365;-88
2023/10/12 10:38:33;;;;;;;30.50;13.50;;;;;;;;;;13177577;22;20403;-88
2023/10/12 10:43:38;;;;;;;25.63;13.68;;;;;;;;;;13177872;22;20391;-89
2023/10/12 10:48:41;;;;;;;24.77;13.60;;;;;;;;;;13177407;22;20419;-88
2023/10/12 10:53:46;;;;;;;21.33;12.55;;;;;;;;;;13176738;22;20357;-88
2023/10/12 10:58:50;;;;;;;22.98;13.88;;;;;;;;;;13199308;22;20901;-88
2023/10/12 11:03:52;;;;;;;28.23;14.17;;;;;;;;;;13177833;22;20365;-88
2023/10/12 11:09:05;;;;;;;30.02;15.15;;;;;;;;;;13176154;22;20357;-88
2023/10/12 11:14:10;;;;;;;29.70;14.27;;;;;;;;;;13175948;22;20365;-89
2023/10/12 11:19:13;;;;;;;22.05;11.48;;;;;;;;;;13144277;22;21001;-89
2023/10/12 11:24:15;;;;;;;27.67;12.20;;;;;;;;;;13167203;22;20906;-88
2023/10/12 11:29:19;;;;;;;22.15;12.52;;;;;;;;;;13177459;22;20403;-88
2023/10/12 11:34:23;;;;;;;28.07;13.60;;;;;;;;;;13171477;22;20369;-89
2023/10/12 11:39:28;;;;;;;24.45;12.95;;;;;;;;;;13173324;22;20451;-89
2023/10/12 11:44:36;;;;;;;23.20;11.20;;;;;;;;;;13166605;22;20377;-88
2023/10/12 11:49:48;;;;;;;20.25;10.38;;;;;;;;;;13165068;22;20369;-89
2023/10/12 11:54:52;;;;;;;21.85;11.80;;;;;;;;;;13165250;22;20374;-89
2023/10/12 11:59:58;;;;;;;19.83;10.80;;;;;;;;;;13165886;22;20381;-89
2023/10/12 12:05:01;;;;;;;27.70;12.95;;;;;;;;;;13166116;22;20395;-88
2023/10/12 12:10:07;;;;;;;22.15;11.15;;;;;;;;;;13194507;22;20361;-87
2023/10/12 12:15:14;;;;;;;22.50;11.83;;;;;;;;;;13173762;22;20370;-88
2023/10/12 12:20:21;;;;;;;23.20;12.57;;;;;;;;;;13174000;22;20366;-88
2023/10/12 12:25:31;;;;;;;26.52;14.30;;;;;;;;;;13173133;22;20878;-89
2023/10/12 12:30:39;;;;;;;22.00;11.48;;;;;;;;;;13175814;22;20361;-90
2023/10/12 12:35:44;;;;;;;23.27;12.97;;;;;;;;;;13184284;22;20410;-89
2023/10/12 12:40:47;;;;;;;22.67;12.83;;;;;;;;;;13190302;22;20403;-89
2023/10/12 12:45:52;;;;;;;23.65;13.57;;;;;;;;;;13175588;22;20358;-90
2023/10/12 12:50:54;;;;;;;28.35;14.00;;;;;;;;;;13176920;22;20383;-91
2023/10/12 12:55:57;;;;;;;29.45;15.10;;;;;;;;;;13176987;22;20381;-90
2023/10/12 13:01:01;;;;;;;31.67;16.60;;;;;;;;;;13176428;22;20357;-90
2023/10/12 13:06:07;;;;;;;27.38;15.43;;;;;;;;;;13180769;22;20354;-90
2023/10/12 13:11:11;;;;;;;35.15;16.65;;;;;;;;;;13196608;22;20341;-89
2023/10/12 13:16:15;;;;;;;29.27;15.23;;;;;;;;;;13175565;22;20378;-90
2023/10/12 13:21:22;;;;;;;31.77;16.75;;;;;;;;;;13171446;22;20698;-90
2023/10/12 13:26:26;;;;;;;30.48;16.25;;;;;;;;;;13173577;22;20414;-90
2023/10/12 13:31:30;;;;;;;35.78;16.80;;;;;;;;;;13171686;22;20395;-89
2023/10/12 13:36:32;;;;;;;33.00;17.42;;;;;;;;;;13171100;22;21087;-89
2023/10/12 13:41:35;;;;;;;30.70;17.35;;;;;;;;;;13172860;22;20682;-90
2023/10/12 13:46:38;;;;;;;31.30;17.50;;;;;;;;;;13187621;22;20391;-90
2023/10/12 13:51:47;;;;;;;25.83;15.40;;;;;;;;;;13173414;22;20696;-91
2023/10/12 13:56:56;;;;;;;29.67;16.15;;;;;;;;;;13171550;22;20381;-90
2023/10/12 14:02:05;;;;;;;31.10;16.50;;;;;;;;;;13172533;22;20354;-89
2023/10/12 14:07:07;;;;;;;32.15;17.88;;;;;;;;;;13168258;22;20905;-88
2023/10/12 14:12:10;;;;;;;28.30;16.57;;;;;;;;;;13168490;22;20389;-90
2023/10/12 14:17:14;;;;;;;30.33;16.33;;;;;;;;;;13166695;22;20408;-87
2023/10/12 14:22:16;;;;;;;33.47;16.48;;;;;;;;;;13163151;22;20705;-88
2023/10/12 14:27:21;;;;;;;26.98;15.93;;;;;;;;;;13161592;22;20877;-88
2023/10/12 14:32:25;;;;;;;28.23;16.15;;;;;;;;;;13169258;22;20354;-88
2023/10/12 14:37:28;;;;;;;34.13;16.45;;;;;;;;;;13164296;22;20446;-86
2023/10/12 14:42:31;;;;;;;27.42;16.75;;;;;;;;;;13165677;22;20980;-85
2023/10/12 14:47:35;;;;;;;28.98;16.75;;;;;;;;;;13169711;22;20890;-87
2023/10/12 14:52:39;;;;;;;29.50;17.40;;;;;;;;;;13205581;22;20354;-88
2023/10/12 14:57:43;;;;;;;34.42;17.92;;;;;;;;;;13162440;22;20381;-87
2023/10/12 15:02:48;;;;;;;32.30;16.85;;;;;;;;;;13163840;22;20362;-88
2023/10/12 15:07:52;;;;;;;31.45;17.00;;;;;;;;;;13173023;22;20437;-88
2023/10/12 15:12:56;;;;;;;34.10;17.00;;;;;;;;;;13170229;22;20415;-88
2023/10/12 15:17:59;;;;;;;30.98;18.00;;;;;;;;;;13173167;22;20910;-87
2023/10/12 15:23:02;;;;;;;37.05;18.95;;;;;;;;;;13173930;22;20910;-87
2023/10/12 15:28:06;;;;;;;35.70;17.73;;;;;;;;;;13172531;22;20366;-88
2023/10/12 15:33:10;;;;;;;31.77;18.00;;;;;;;;;;13167439;22;20817;-87
2023/10/12 15:38:13;;;;;;;31.73;16.88;;;;;;;;;;13171704;22;20381;-85
2023/10/12 15:43:16;;;;;;;33.10;17.77;;;;;;;;;;13173095;22;20431;-87
2023/10/12 15:48:26;;;;;;;35.47;18.10;;;;;;;;;;13173951;22;20882;-88
2023/10/12 15:53:28;;;;;;;31.33;16.48;;;;;;;;;;13172374;22;20411;-87
2023/10/12 15:58:31;;;;;;;31.75;17.13;;;;;;;;;;13120849;22;20399;-87
2023/10/12 16:03:35;;;;;;;33.35;18.17;;;;;;;;;;13108964;22;20725;-88
2023/10/12 16:08:37;;;;;;;33.78;17.75;;;;;;;;;;13109284;22;20355;-88
2023/10/12 16:13:39;;;;;;;30.70;16.45;;;;;;;;;;13108878;22;20688;-86
2023/10/12 16:18:43;;;;;;;34.15;17.60;;;;;;;;;;13105755;22;20413;-88
2023/10/12 16:23:46;;;;;;;29.58;17.70;;;;;;;;;;13105961;22;20375;-88
2023/10/12 16:28:48;;;;;;;30.42;16.85;;;;;;;;;;13107074;22;20367;-88
2023/10/12 16:33:54;;;;;;;32.20;17.20;;;;;;;;;;13103525;22;20364;-88
2023/10/12 16:38:56;;;;;;;31.93;16.60;;;;;;;;;;13102027;22;20448;-89
2023/10/12 16:43:59;;;;;;;32.00;16.40;;;;;;;;;;13130511;22;20389;-91
2023/10/12 16:49:02;;;;;;;30.35;16.73;;;;;;;;;;13113009;22;20420;-90
2023/10/12 16:54:12;;;;;;;28.73;16.58;;;;;;;;;;13119847;22;20365;-91
2023/10/12 16:59:15;;;;;;;29.67;16.98;;;;;;;;;;13178641;22;20407;-90
2023/10/12 17:04:32;;;;;;;30.30;17.57;;;;;;;;;;13194810;22;20366;-91
2023/10/12 17:09:35;;;;;;;29.55;17.60;;;;;;;;;;13174566;22;20423;-88
2023/10/12 17:14:38;;;;;;;33.73;16.60;;;;;;;;;;13171162;22;20675;-89
2023/10/12 17:19:45;;;;;;;30.67;16.73;;;;;;;;;;13166041;22;20430;-90
2023/10/12 17:24:48;;;;;;;31.60;18.25;;;;;;;;;;13169387;22;20366;-89
2023/10/12 17:29:50;;;;;;;35.22;18.02;;;;;;;;;;13165511;22;20898;-90
2023/10/12 17:34:56;;;;;;;32.60;17.67;;;;;;;;;;13162606;22;20865;-88
2023/10/12 17:40:00;;;;;;;35.17;17.63;;;;;;;;;;13160693;22;20377;-89
2023/10/12 17:45:09;;;;;;;39.03;18.83;;;;;;;;;;13160922;22;20852;-89
2023/10/12 17:50:19;;;;;;;35.45;19.17;;;;;;;;;;13165822;22;20565;-89
2023/10/12 17:55:22;;;;;;;33.70;18.83;;;;;;;;;;13164987;22;20365;-89
2023/10/12 18:00:28;;;;;;;36.53;20.30;;;;;;;;;;13157015;22;20461;-88
2023/10/12 18:05:32;;;;;;;37.33;19.27;;;;;;;;;;13172574;22;20370;-88
2023/10/12 18:10:34;;;;;;;39.90;21.03;;;;;;;;;;13164099;22;20403;-87
2023/10/12 18:15:37;;;;;;;41.42;21.67;;;;;;;;;;13157863;22;20461;-88
2023/10/12 18:20:45;;;;;;;43.13;23.88;;;;;;;;;;13172204;22;20385;-88
2023/10/12 18:25:48;;;;;;;49.67;25.10;;;;;;;;;;13157297;22;20851;-88
2023/10/12 18:30:58;;;;;;;49.28;25.60;;;;;;;;;;13158684;22;20374;-89
2023/10/12 18:36:03;;;;;;;55.38;26.98;;;;;;;;;;13162078;22;20703;-89
2023/10/12 18:41:07;;;;;;;59.43;28.70;;;;;;;;;;13160321;22;20373;-89
2023/10/12 18:46:10;;;;;;;60.97;28.70;;;;;;;;;;13166224;22;20398;-89
2023/10/12 18:51:15;;;;;;;59.40;29.20;;;;;;;;;;13165575;22;20373;-88
2023/10/12 18:56:18;;;;;;;64.97;29.85;;;;;;;;;;13165420;22;20439;-89
2023/10/12 19:01:21;;;;;;;60.78;29.85;;;;;;;;;;13164821;22;20381;-90
2023/10/12 19:06:26;;;;;;;57.88;29.50;;;;;;;;;;13169225;22;20422;-89
2023/10/12 19:11:28;;;;;;;60.67;30.50;;;;;;;;;;13170751;22;20369;-89
2023/10/12 19:16:33;;;;;;;63.00;30.35;;;;;;;;;;13163742;22;20403;-89
2023/10/12 19:21:39;;;;;;;56.63;29.40;;;;;;;;;;13165495;22;20373;-89
2023/10/12 19:26:42;;;;;;;58.37;30.47;;;;;;;;;;13165427;22;20403;-89
2023/10/12 19:31:46;;;;;;;63.15;30.23;;;;;;;;;;13164091;22;20373;-89
2023/10/12 19:36:52;;;;;;;67.70;32.85;;;;;;;;;;13163090;22;20378;-89
2023/10/12 19:41:56;;;;;;;67.07;31.50;;;;;;;;;;13181434;22;20736;-90
2023/10/12 19:46:59;;;;;;;62.78;31.27;;;;;;;;;;13162923;22;20365;-89
2023/10/12 19:52:04;;;;;;;65.53;32.20;;;;;;;;;;13165826;22;20774;-90
2023/10/12 19:57:06;;;;;;;68.85;31.95;;;;;;;;;;13169450;22;20461;-89
2023/10/12 20:02:20;;;;;;;66.75;31.60;;;;;;;;;;13164727;22;20373;-89
2023/10/12 20:07:27;;;;;;;65.15;30.75;;;;;;;;;;13164432;22;20403;-91
2023/10/12 20:12:30;;;;;;;69.13;31.52;;;;;;;;;;13180381;22;20453;-90
2023/10/12 20:17:33;;;;;;;69.95;32.35;;;;;;;;;;13166005;22;20378;-88
2023/10/12 20:22:39;;;;;;;69.57;32.13;;;;;;;;;;13168136;22;20445;-90
2023/10/12 20:27:41;;;;;;;69.60;31.47;;;;;;;;;;13169307;22;20751;-89
2023/10/12 20:32:44;;;;;;;68.88;31.15;;;;;;;;;;13169373;22;20431;-89
2023/10/12 20:37:48;;;;;;;70.07;33.70;;;;;;;;;;13168075;22;20385;-90
2023/10/12 20:42:52;;;;;;;68.80;31.60;;;;;;;;;;13168510;22;20445;-90
2023/10/12 20:47:55;;;;;;;65.97;31.10;;;;;;;;;;13169111;22;20358;-90
2023/10/12 20:52:58;;;;;;;72.38;33.53;;;;;;;;;;13169248;22;20366;-90
2023/10/12 20:58:01;;;;;;;67.43;31.85;;;;;;;;;;13166913;22;20770;-90
2023/10/12 21:03:10;;;;;;;69.80;31.95;;;;;;;;;;13168536;22;20925;-89
2023/10/12 21:08:19;;;;;;;68.53;32.03;;;;;;;;;;13169151;22;20381;-89
2023/10/12 21:13:25;;;;;;;62.30;30.35;;;;;;;;;;13184143;22;20377;-90
2023/10/12 21:18:34;;;;;;;63.00;31.95;;;;;;;;;;13190498;22;20381;-91
2023/10/12 21:23:47;;;;;;;63.00;30.67;;;;;;;;;;13179153;22;20362;-88
2023/10/12 21:28:54;;;;;;;65.10;30.37;;;;;;;;;;13167741;22;20377;-88
2023/10/12 21:33:59;;;;;;;66.80;30.57;;;;;;;;;;13165697;22;20698;-91
2023/10/12 21:39:09;;;;;;;64.15;31.48;;;;;;;;;;13169047;22;20373;-89
2023/10/12 21:44:13;;;;;;;62.65;31.98;;;;;;;;;;13172211;22;20438;-90
2023/10/12 21:49:16;;;;;;;67.57;31.77;;;;;;;;;;13174264;22;20349;-89
2023/10/12 21:54:20;;;;;;;69.38;32.88;;;;;;;;;;13173507;22;20357;-89
2023/10/12 21:59:22;;;;;;;67.38;31.42;;;;;;;;;;13173494;22;20378;-90
2023/10/12 22:04:30;;;;;;;64.65;31.15;;;;;;;;;;13169840;22;20729;-90
2023/10/12 22:09:43;;;;;;;65.20;32.25;;;;;;;;;;13169088;22;20676;-90
2023/10/12 22:14:59;;;;;;;66.35;32.92;;;;;;;;;;13190188;22;20391;-89
2023/10/12 22:20:02;;;;;;;67.23;33.40;;;;;;;;;;13175763;22;20381;-90
2023/10/12 22:25:06;;;;;;;67.43;33.42;;;;;;;;;;13175104;22;20361;-89
2023/10/12 22:30:09;;;;;;;73.10;35.38;;;;;;;;;;13175477;22;20357;-89
2023/10/12 22:35:12;;;;;;;76.82;36.05;;;;;;;;;;13175109;22;20354;-89
2023/10/12 22:40:16;;;;;;;68.27;33.87;;;;;;;;;;13174325;22;20377;-89
2023/10/12 22:45:20;;;;;;;76.05;34.88;;;;;;;;;;13174529;22;20357;-90
2023/10/12 22:50:22;;;;;;;71.28;33.55;;;;;;;;;;13173440;22;20395;-90
2023/10/12 22:55:26;;;;;;;66.90;33.40;;;;;;;;;;13173337;22;20412;-90
2023/10/12 23:00:29;;;;;;;68.97;33.60;;;;;;;;;;13107432;22;20379;-90
2023/10/12 23:05:31;;;;;;;67.20;32.42;;;;;;;;;;12999447;22;20424;-90
2023/10/12 23:10:38;;;;;;;67.90;32.92;;;;;;;;;;12980349;22;20358;-90
2023/10/12 23:15:43;;;;;;;68.57;33.00;;;;;;;;;;12980867;22;20396;-90
2023/10/12 23:20:47;;;;;;;65.30;32.65;;;;;;;;;;12981179;22;20382;-89
2023/10/12 23:25:52;;;;;;;66.30;32.03;;;;;;;;;;12981042;22;20393;-89
2023/10/12 23:31:04;;;;;;;65.93;32.25;;;;;;;;;;12985627;22;20837;-85
2023/10/12 23:36:07;;;;;;;64.05;31.92;;;;;;;;;;12984615;22;20416;-89
2023/10/12 23:41:19;;;;;;;67.77;33.77;;;;;;;;;;12984053;22;20382;-90
2023/10/12 23:46:24;;;;;;;66.73;33.67;;;;;;;;;;12983425;22;20367;-89
2023/10/12 23:51:29;;;;;;;60.13;31.85;;;;;;;;;;12984599;22;20363;-89
2023/10/12 23:56:39;;;;;;;65.72;32.95;;;;;;;;;;13001499;22;20686;-89
